createdAt,value
2023-03-02T00:00:41.494Z,95.20
2023-03-02T00:03:09.648Z,95.20
2023-03-02T00:05:38.552Z,95.30
2023-03-02T00:08:05.866Z,95.70
2023-03-02T00:10:32.808Z,95.40
2023-03-02T00:12:59.884Z,95.50
2023-03-02T00:15:27.026Z,95.60
2023-03-02T00:17:53.929Z,95.50
2023-03-02T00:20:20.913Z,95.70
2023-03-02T00:22:49.326Z,95.70
2023-03-02T00:25:17.856Z,95.70
2023-03-02T00:27:45.168Z,95.70
2023-03-02T00:30:13.981Z,95.70
2023-03-02T00:32:41.474Z,95.70
2023-03-02T00:35:09.364Z,95.70
2023-03-02T00:37:36.489Z,95.70
2023-03-02T00:40:06.881Z,95.70
2023-03-02T00:42:34.125Z,95.70
2023-03-02T00:45:01.547Z,95.70
2023-03-02T00:47:29.224Z,95.70
2023-03-02T00:49:56.877Z,95.80
2023-03-02T00:52:24.008Z,95.90
2023-03-02T00:54:51.329Z,95.90
2023-03-02T00:57:19.684Z,96.00
2023-03-02T00:59:46.771Z,96.10
2023-03-02T01:02:23.430Z,96.10
2023-03-02T01:04:53.102Z,96.20
2023-03-02T01:07:21.104Z,96.20
2023-03-02T01:09:51.259Z,96.30
2023-03-02T01:12:19.804Z,96.40
2023-03-02T01:14:48.585Z,96.40
2023-03-02T01:17:16.381Z,96.50
2023-03-02T01:19:43.706Z,96.50
2023-03-02T01:22:11.066Z,96.60
2023-03-02T01:24:38.012Z,96.50
2023-03-02T01:27:04.943Z,96.50
2023-03-02T01:29:33.138Z,96.60
2023-03-02T01:32:00.308Z,96.60
2023-03-02T01:34:27.395Z,96.60
2023-03-02T01:36:54.288Z,96.60
2023-03-02T01:39:22.522Z,96.80
2023-03-02T01:41:52.006Z,96.70
2023-03-02T01:44:37.875Z,96.90
2023-03-02T01:47:13.922Z,96.80
2023-03-02T01:49:50.917Z,97.00
2023-03-02T01:52:19.033Z,97.00
2023-03-02T01:54:49.824Z,97.00
2023-03-02T01:57:22.409Z,97.10
2023-03-02T01:59:54.748Z,97.20
2023-03-02T02:02:21.826Z,97.20
2023-03-02T02:04:49.714Z,97.20
2023-03-02T02:07:16.911Z,97.20
2023-03-02T02:09:46.604Z,97.20
2023-03-02T02:12:14.924Z,97.20
2023-03-02T02:14:42.379Z,97.20
2023-03-02T02:17:12.418Z,97.30
2023-03-02T02:19:55.029Z,97.30
2023-03-02T02:22:35.042Z,97.40
2023-03-02T02:25:09.710Z,97.40
2023-03-02T02:27:38.127Z,97.40
2023-03-02T02:30:07.760Z,97.80
2023-03-02T02:32:38.813Z,97.50
2023-03-02T02:35:12.219Z,97.60
2023-03-02T02:37:44.746Z,97.60
2023-03-02T02:40:16.922Z,97.60
2023-03-02T02:42:48.236Z,97.60
2023-03-02T02:45:20.984Z,97.60
2023-03-02T02:47:49.449Z,97.60
2023-03-02T02:50:22.956Z,97.70
2023-03-02T02:52:55.428Z,97.70
2023-03-02T02:55:25.030Z,97.70
2023-03-02T02:57:57.579Z,97.70
2023-03-02T03:00:25.624Z,97.70
2023-03-02T03:02:58.193Z,97.70
2023-03-02T03:05:25.162Z,97.70
2023-03-02T03:07:52.113Z,97.70
2023-03-02T03:10:26.889Z,97.80
2023-03-02T03:12:56.386Z,97.80
2023-03-02T03:15:23.685Z,97.90
2023-03-02T03:17:55.471Z,97.90
2023-03-02T03:20:24.109Z,97.90
2023-03-02T03:22:53.490Z,98.00
2023-03-02T03:25:22.174Z,98.00
2023-03-02T03:27:49.405Z,98.10
2023-03-02T03:30:18.502Z,98.10
2023-03-02T03:32:46.580Z,98.10
2023-03-02T03:35:15.546Z,98.10
2023-03-02T03:37:43.444Z,98.10
2023-03-02T03:40:11.537Z,98.30
2023-03-02T03:42:41.591Z,98.20
2023-03-02T03:45:09.162Z,98.30
2023-03-02T03:47:38.847Z,98.20
2023-03-02T03:50:08.438Z,98.30
2023-03-02T03:52:35.658Z,98.40
2023-03-02T03:55:09.776Z,98.40
2023-03-02T03:57:37.086Z,98.50
2023-03-02T04:00:07.977Z,98.40
2023-03-02T04:02:42.313Z,98.50
2023-03-02T04:05:11.282Z,98.60
2023-03-02T04:07:39.511Z,98.50
2023-03-02T04:10:08.403Z,98.80
2023-03-02T04:12:39.282Z,98.80
2023-03-02T04:15:09.076Z,98.80
2023-03-02T04:17:36.137Z,98.80
2023-03-02T04:20:08.234Z,98.80
2023-03-02T04:22:35.874Z,98.90
2023-03-02T04:25:05.076Z,98.90
2023-03-02T04:27:32.230Z,98.80
2023-03-02T04:29:59.313Z,98.90
2023-03-02T04:32:26.316Z,98.80
2023-03-02T04:34:55.844Z,98.80
2023-03-02T04:37:24.742Z,98.80
2023-03-02T04:39:52.753Z,98.80
2023-03-02T04:42:20.384Z,98.90
2023-03-02T04:44:47.335Z,98.80
2023-03-02T04:47:14.395Z,98.80
2023-03-02T04:49:42.029Z,98.80
2023-03-02T04:52:09.666Z,98.80
2023-03-02T04:54:37.884Z,98.90
2023-03-02T04:57:04.794Z,98.90
2023-03-02T04:59:31.655Z,99.00
2023-03-02T05:02:00.674Z,98.90
2023-03-02T05:04:28.816Z,98.90
2023-03-02T05:06:56.163Z,98.90
2023-03-02T05:09:27.317Z,98.90
2023-03-02T05:11:56.629Z,98.90
2023-03-02T05:14:24.368Z,99.00
2023-03-02T05:16:51.910Z,99.00
2023-03-02T05:19:19.327Z,98.90
2023-03-02T05:21:46.487Z,98.80
2023-03-02T05:24:13.427Z,98.90
2023-03-02T05:26:40.395Z,99.00
2023-03-02T05:29:08.766Z,98.90
2023-03-02T05:31:38.481Z,99.00
2023-03-02T05:34:08.309Z,98.90
2023-03-02T05:36:36.122Z,99.00
2023-03-02T05:39:03.767Z,99.00
2023-03-02T05:41:30.792Z,99.00
2023-03-02T05:43:57.684Z,99.00
2023-03-02T05:46:26.248Z,98.90
2023-03-02T05:48:53.585Z,98.90
2023-03-02T05:51:20.424Z,98.90
2023-03-02T05:53:47.511Z,98.90
2023-03-02T05:56:14.461Z,98.90
2023-03-02T05:58:41.375Z,99.00
2023-03-02T06:01:12.562Z,98.90
2023-03-02T06:03:43.442Z,98.90
2023-03-02T06:06:14.051Z,99.00
2023-03-02T06:08:41.737Z,99.00
2023-03-02T06:11:09.524Z,99.00
2023-03-02T06:13:36.858Z,99.10
2023-03-02T06:16:04.362Z,99.10
2023-03-02T06:18:31.288Z,99.10
2023-03-02T06:20:59.953Z,99.20
2023-03-02T06:23:26.934Z,99.20
2023-03-02T06:25:54.092Z,99.20
2023-03-02T06:28:21.943Z,99.20
2023-03-02T06:30:49.649Z,99.10
2023-03-02T06:33:18.141Z,99.10
2023-03-02T06:35:45.796Z,99.10
2023-03-02T06:38:14.179Z,99.10
2023-03-02T06:40:41.092Z,99.20
2023-03-02T06:43:07.991Z,99.50
2023-03-02T06:45:35.073Z,99.70
2023-03-02T06:48:02.289Z,99.60
2023-03-02T06:50:29.514Z,99.30
2023-03-02T06:52:56.790Z,99.20
2023-03-02T06:55:25.070Z,99.10
2023-03-02T06:57:52.113Z,99.10
2023-03-02T07:00:26.211Z,99.10
2023-03-02T07:02:53.742Z,99.10
2023-03-02T07:05:21.625Z,99.10
2023-03-02T07:07:48.507Z,99.10
2023-03-02T07:10:15.644Z,99.00
2023-03-02T07:12:43.967Z,99.00
2023-03-02T07:15:13.964Z,98.90
2023-03-02T07:17:42.510Z,99.00
2023-03-02T07:20:11.652Z,98.90
2023-03-02T07:22:38.898Z,98.90
2023-03-02T07:25:07.191Z,98.80
2023-03-02T07:27:34.237Z,98.90
2023-03-02T07:30:02.687Z,98.90
2023-03-02T07:32:29.661Z,99.00
2023-03-02T07:34:56.574Z,98.90
2023-03-02T07:37:23.647Z,99.00
2023-03-02T07:39:50.572Z,99.00
2023-03-02T07:42:18.013Z,99.10
2023-03-02T07:44:47.944Z,99.00
2023-03-02T07:47:16.213Z,99.00
2023-03-02T07:49:43.114Z,99.00
2023-03-02T07:52:10.032Z,99.00
2023-03-02T07:54:37.011Z,99.00
2023-03-02T07:57:04.041Z,99.00
2023-03-02T07:59:30.902Z,99.00
2023-03-02T08:01:59.160Z,99.00
2023-03-02T08:04:27.452Z,99.00
2023-03-02T08:06:54.594Z,99.00
2023-03-02T08:09:21.480Z,98.90
2023-03-02T08:11:48.404Z,98.80
2023-03-02T08:14:15.353Z,98.80
2023-03-02T08:16:42.333Z,98.70
2023-03-02T08:19:09.302Z,98.70
2023-03-02T08:21:37.641Z,98.70
2023-03-02T08:24:04.783Z,98.70
2023-03-02T08:26:31.910Z,98.60
2023-03-02T08:28:59.425Z,98.60
2023-03-02T08:31:27.197Z,98.70
2023-03-02T08:33:54.397Z,98.70
2023-03-02T08:36:21.860Z,98.60
2023-03-02T08:38:50.352Z,98.60
2023-03-02T08:41:19.855Z,98.70
2023-03-02T08:43:46.862Z,98.70
2023-03-02T08:46:15.945Z,98.70
2023-03-02T08:48:43.122Z,98.60
2023-03-02T08:51:12.981Z,98.60
2023-03-02T08:53:42.052Z,98.50
2023-03-02T08:56:17.318Z,98.50
2023-03-02T08:58:44.199Z,98.50
2023-03-02T09:01:15.622Z,98.40
2023-03-02T09:03:42.594Z,98.30
2023-03-02T09:06:09.563Z,98.10
2023-03-02T09:08:36.577Z,98.00
2023-03-02T09:11:03.576Z,97.90
2023-03-02T09:13:31.813Z,97.90
2023-03-02T09:15:59.029Z,97.70
2023-03-02T09:18:26.343Z,97.50
2023-03-02T09:20:53.649Z,97.40
2023-03-02T09:23:20.723Z,97.60
2023-03-02T09:25:48.853Z,97.40
2023-03-02T09:28:16.662Z,97.30
2023-03-02T09:30:48.772Z,97.10
2023-03-02T09:33:15.872Z,97.00
2023-03-02T09:35:42.850Z,96.90
2023-03-02T09:38:12.873Z,96.90
2023-03-02T09:40:52.271Z,96.90
2023-03-02T09:43:28.032Z,96.70
2023-03-02T09:46:16.608Z,96.50
2023-03-02T09:48:51.358Z,96.40
2023-03-02T09:51:30.984Z,96.30
2023-03-02T09:54:03.525Z,96.40
2023-03-02T09:56:31.697Z,96.40
2023-03-02T09:59:05.000Z,96.50
2023-03-02T10:01:40.629Z,96.40
2023-03-02T10:04:17.731Z,96.30
2023-03-02T10:06:46.020Z,95.90
2023-03-02T10:09:13.082Z,95.90
2023-03-02T10:11:54.801Z,96.30
2023-03-02T10:14:26.042Z,96.30
2023-03-02T10:17:05.178Z,96.20
2023-03-02T10:19:41.551Z,96.00
2023-03-02T10:22:14.356Z,95.60
2023-03-02T10:24:47.243Z,95.80
2023-03-02T10:27:18.060Z,95.80
2023-03-02T10:29:50.834Z,95.90
2023-03-02T10:32:24.184Z,95.70
2023-03-02T10:34:53.117Z,95.20
2023-03-02T10:37:25.050Z,95.20
2023-03-02T10:39:52.166Z,95.20
2023-03-02T10:42:25.908Z,95.30
2023-03-02T10:44:55.778Z,95.40
2023-03-02T10:47:26.030Z,95.30
2023-03-02T10:49:53.789Z,94.90
2023-03-02T10:52:22.353Z,95.20
2023-03-02T10:54:50.005Z,95.30
2023-03-02T10:57:37.803Z,95.00
2023-03-02T11:00:15.103Z,94.90
2023-03-02T11:02:51.213Z,95.00
2023-03-02T11:05:27.654Z,94.90
2023-03-02T11:07:56.502Z,94.90
2023-03-02T11:10:26.393Z,95.00
2023-03-02T11:12:53.948Z,94.80
2023-03-02T11:15:26.768Z,94.60
2023-03-02T11:18:04.767Z,94.50
2023-03-02T11:20:35.127Z,94.40
2023-03-02T11:23:21.293Z,94.30
2023-03-02T11:25:52.604Z,93.90
2023-03-02T11:28:34.574Z,92.80
2023-03-02T11:31:05.343Z,92.90
2023-03-02T11:33:40.330Z,92.50
2023-03-02T11:36:14.500Z,91.90
2023-03-02T11:38:47.110Z,91.10
2023-03-02T11:41:30.309Z,91.50
2023-03-02T11:44:00.954Z,91.50
2023-03-02T11:46:33.313Z,91.30
2023-03-02T11:49:05.388Z,91.70
2023-03-02T11:51:36.023Z,91.10
2023-03-02T11:54:05.971Z,91.40
2023-03-02T11:56:35.178Z,91.10
2023-03-02T11:59:05.073Z,90.60
2023-03-02T12:01:35.511Z,90.30
2023-03-02T12:04:25.119Z,90.10
2023-03-02T12:06:52.203Z,89.20
2023-03-02T12:09:37.389Z,88.10
2023-03-02T12:12:26.994Z,87.10
2023-03-02T12:14:53.897Z,86.10
2023-03-02T12:17:31.219Z,85.30
2023-03-02T12:20:23.499Z,85.50
2023-03-02T12:22:50.762Z,84.80
2023-03-02T12:25:39.999Z,85.20
2023-03-02T12:28:26.152Z,84.00
2023-03-02T12:31:02.513Z,83.10
2023-03-02T12:33:29.446Z,83.20
2023-03-02T12:36:11.400Z,83.10
2023-03-02T12:38:41.332Z,83.50
2023-03-02T12:41:35.633Z,82.10
2023-03-02T12:44:19.046Z,82.40
2023-03-02T12:46:47.350Z,81.20
2023-03-02T12:49:25.321Z,79.80
2023-03-02T12:51:55.490Z,79.80
2023-03-02T12:54:23.956Z,80.00
2023-03-02T12:57:01.458Z,80.00
2023-03-02T12:59:29.970Z,77.80
2023-03-02T13:02:05.930Z,78.70
2023-03-02T13:04:32.840Z,78.40
2023-03-02T13:07:01.223Z,78.40
2023-03-02T13:09:28.887Z,79.60
2023-03-02T13:11:56.743Z,79.10
2023-03-02T13:14:26.575Z,78.90
2023-03-02T13:16:56.327Z,78.40
2023-03-02T13:19:24.509Z,79.30
2023-03-02T13:21:52.014Z,78.20
2023-03-02T13:24:45.823Z,78.40
2023-03-02T13:27:17.881Z,78.70
2023-03-02T13:29:45.734Z,79.20
2023-03-02T13:32:18.165Z,79.30
2023-03-02T13:34:50.649Z,80.60
2023-03-02T13:37:32.084Z,79.90
2023-03-02T13:40:04.251Z,79.00
2023-03-02T13:42:36.654Z,78.70
2023-03-02T13:45:23.761Z,77.40
2023-03-02T13:47:51.099Z,79.00
2023-03-02T13:50:20.060Z,77.80
2023-03-02T13:52:47.445Z,78.20
2023-03-02T13:55:18.268Z,78.90
2023-03-02T13:57:46.014Z,78.70
2023-03-02T14:00:17.300Z,78.40
2023-03-02T14:02:44.325Z,78.50
2023-03-02T14:05:18.683Z,78.80
2023-03-02T14:07:46.501Z,77.60
2023-03-02T14:10:14.501Z,78.30
2023-03-02T14:12:53.286Z,77.70
2023-03-02T14:15:20.278Z,77.10
2023-03-02T14:17:49.157Z,76.00
2023-03-02T14:20:19.374Z,76.20
2023-03-02T14:22:46.628Z,76.80
2023-03-02T14:25:13.950Z,77.10
2023-03-02T14:27:43.918Z,77.90
2023-03-02T14:30:17.435Z,78.50
2023-03-02T14:32:44.690Z,78.20
2023-03-02T14:35:13.133Z,78.80
2023-03-02T14:37:43.423Z,79.00
2023-03-02T14:40:20.625Z,79.30
2023-03-02T14:42:49.006Z,79.90
2023-03-02T14:45:16.484Z,79.20
2023-03-02T14:47:43.422Z,78.60
2023-03-02T14:50:11.764Z,78.90
2023-03-02T14:52:41.804Z,79.20
2023-03-02T14:55:14.631Z,79.90
2023-03-02T14:57:41.564Z,80.10
2023-03-02T15:00:15.351Z,79.90
2023-03-02T15:02:42.606Z,80.80
2023-03-02T15:05:10.243Z,81.30
2023-03-02T15:07:38.857Z,81.80
2023-03-02T15:10:07.676Z,82.70
2023-03-02T15:12:34.489Z,82.70
2023-03-02T15:15:01.641Z,83.10
2023-03-02T15:17:29.914Z,83.50
2023-03-02T15:19:56.981Z,83.80
2023-03-02T15:22:23.940Z,83.60
2023-03-02T15:24:50.805Z,83.70
2023-03-02T15:27:17.823Z,83.70
2023-03-02T15:29:45.503Z,83.90
2023-03-02T15:32:12.575Z,84.10
2023-03-02T15:34:40.869Z,84.90
2023-03-02T15:37:09.198Z,85.00
2023-03-02T15:39:36.070Z,85.10
2023-03-02T15:42:05.434Z,85.30
2023-03-02T15:44:33.427Z,85.40
2023-03-02T15:47:01.481Z,85.10
2023-03-02T15:49:29.377Z,85.00
2023-03-02T15:51:58.364Z,85.30
2023-03-02T15:54:25.934Z,85.50
2023-03-02T15:56:53.385Z,85.80
2023-03-02T15:59:20.826Z,86.10
2023-03-02T16:01:47.838Z,86.20
2023-03-02T16:04:14.781Z,86.20
2023-03-02T16:06:41.730Z,86.00
2023-03-02T16:09:10.481Z,86.10
2023-03-02T16:11:37.414Z,86.30
2023-03-02T16:14:04.657Z,86.50
2023-03-02T16:16:31.727Z,86.90
2023-03-02T16:18:59.199Z,87.20
2023-03-02T16:21:28.412Z,87.50
2023-03-02T16:24:02.877Z,87.60
2023-03-02T16:26:32.479Z,87.80
2023-03-02T16:28:59.799Z,88.10
2023-03-02T16:31:28.127Z,88.50
2023-03-02T16:33:57.467Z,88.80
2023-03-02T16:36:24.875Z,89.00
2023-03-02T16:38:52.449Z,89.20
2023-03-02T16:41:21.840Z,89.50
2023-03-02T16:43:51.978Z,89.60
2023-03-02T16:46:20.298Z,89.90
2023-03-02T16:48:48.484Z,90.10
2023-03-02T16:51:16.986Z,90.20
2023-03-02T16:53:44.173Z,90.40
2023-03-02T16:56:12.934Z,90.60
2023-03-02T16:58:41.375Z,90.80
2023-03-02T17:01:11.943Z,91.00
2023-03-02T17:03:38.877Z,91.10
2023-03-02T17:06:06.657Z,91.20
2023-03-02T17:08:33.630Z,91.30
2023-03-02T17:11:00.735Z,91.70
2023-03-02T17:13:28.029Z,91.90
2023-03-02T17:15:55.444Z,92.20
2023-03-02T17:18:24.136Z,92.50
2023-03-02T17:20:52.341Z,92.90
2023-03-02T17:23:19.247Z,92.90
2023-03-02T17:25:46.477Z,93.20
2023-03-02T17:28:14.941Z,93.20
2023-03-02T17:30:42.573Z,93.40
2023-03-02T17:33:09.555Z,93.60
2023-03-02T17:35:37.998Z,94.00
2023-03-02T17:38:05.105Z,94.10
2023-03-02T17:40:32.424Z,94.50
2023-03-02T17:42:59.317Z,94.60
2023-03-02T17:45:27.807Z,94.80
2023-03-02T17:47:56.457Z,94.80
2023-03-02T17:50:24.585Z,95.10
2023-03-02T17:52:52.798Z,95.10
2023-03-02T17:55:20.243Z,95.10
2023-03-02T17:57:47.023Z,95.10
2023-03-02T18:00:17.247Z,95.10
2023-03-02T18:02:44.105Z,95.10
2023-03-02T18:05:12.374Z,95.30
2023-03-02T18:07:39.253Z,95.40
2023-03-02T18:10:08.529Z,95.30
2023-03-02T18:12:35.636Z,95.40
2023-03-02T18:15:02.722Z,95.10
2023-03-02T18:17:30.172Z,95.20
2023-03-02T18:19:57.192Z,95.20
2023-03-02T18:22:24.109Z,95.40
2023-03-02T18:24:51.949Z,95.50
2023-03-02T18:27:20.558Z,95.70
2023-03-02T18:29:47.489Z,96.40
2023-03-02T18:32:14.666Z,96.30
2023-03-02T18:34:41.938Z,96.50
2023-03-02T18:37:09.534Z,96.50
2023-03-02T18:39:37.828Z,96.70
2023-03-02T18:42:04.898Z,96.70
2023-03-02T18:44:33.599Z,96.70
2023-03-02T18:47:00.974Z,96.60
2023-03-02T18:49:28.668Z,96.70
2023-03-02T18:51:56.606Z,96.80
2023-03-02T18:54:23.845Z,97.00
2023-03-02T18:56:51.017Z,97.10
2023-03-02T18:59:18.116Z,97.00
2023-03-02T19:01:47.229Z,97.10
2023-03-02T19:04:14.627Z,97.30
2023-03-02T19:06:42.101Z,97.50
2023-03-02T19:09:09.495Z,97.40
2023-03-02T19:11:36.367Z,97.50
2023-03-02T19:14:03.252Z,97.70
2023-03-02T19:16:30.232Z,97.70
2023-03-02T19:18:58.509Z,97.80
2023-03-02T19:21:25.468Z,97.70
2023-03-02T19:23:52.411Z,97.70
2023-03-02T19:26:19.369Z,97.90
2023-03-02T19:28:46.415Z,97.90
2023-03-02T19:31:13.633Z,97.90
2023-03-02T19:33:41.255Z,98.10
2023-03-02T19:36:10.108Z,98.10
2023-03-02T19:38:41.417Z,98.20
2023-03-02T19:41:10.471Z,98.30
2023-03-02T19:43:37.378Z,98.50
2023-03-02T19:46:05.255Z,98.70
2023-03-02T19:48:32.390Z,98.90
2023-03-02T19:50:59.313Z,99.00
2023-03-02T19:53:27.528Z,99.10
2023-03-02T19:55:59.659Z,99.00
2023-03-02T19:58:28.237Z,99.00
2023-03-02T20:00:55.523Z,99.10
2023-03-02T20:03:22.406Z,99.00
2023-03-02T20:05:49.589Z,99.00
2023-03-02T20:08:17.111Z,99.00
2023-03-02T20:10:49.561Z,99.00
2023-03-02T20:13:17.164Z,99.00
2023-03-02T20:15:46.180Z,99.10
2023-03-02T20:18:15.725Z,99.10
2023-03-02T20:20:43.035Z,99.10
2023-03-02T20:23:09.950Z,99.10
2023-03-02T20:25:36.858Z,99.10
2023-03-02T20:28:07.686Z,99.10
2023-03-02T20:30:37.326Z,99.10
2023-03-02T20:33:05.806Z,99.20
2023-03-02T20:35:37.617Z,99.30
2023-03-02T20:38:07.927Z,99.30
2023-03-02T20:40:35.309Z,99.40
2023-03-02T20:43:02.396Z,99.40
2023-03-02T20:45:30.943Z,99.40
2023-03-02T20:47:57.946Z,99.40
2023-03-02T20:50:28.382Z,99.30
2023-03-02T20:52:55.335Z,99.40
2023-03-02T20:55:22.393Z,99.20
2023-03-02T20:57:49.267Z,99.20
2023-03-02T21:00:23.059Z,99.40
2023-03-02T21:02:51.606Z,99.30
2023-03-02T21:05:19.784Z,99.50
2023-03-02T21:07:47.740Z,99.50
2023-03-02T21:10:16.771Z,99.60
2023-03-02T21:12:45.669Z,99.60
2023-03-02T21:15:27.178Z,99.60
2023-03-02T21:17:56.520Z,99.60
2023-03-02T21:20:24.888Z,99.90
2023-03-02T21:22:51.815Z,99.90
2023-03-02T21:25:19.560Z,99.80
2023-03-02T21:27:46.548Z,99.80
2023-03-02T21:30:17.596Z,99.90
2023-03-02T21:32:45.634Z,99.40
2023-03-02T21:35:16.926Z,99.70
2023-03-02T21:37:44.158Z,99.60
2023-03-02T21:40:15.398Z,99.60
2023-03-02T21:42:42.607Z,99.60
2023-03-02T21:45:11.550Z,99.60
2023-03-02T21:47:40.635Z,99.50
2023-03-02T21:50:09.573Z,99.60
2023-03-02T21:52:39.937Z,99.60
2023-03-02T21:55:07.496Z,99.60
2023-03-02T21:57:34.551Z,99.60
2023-03-02T22:00:04.369Z,99.50
2023-03-02T22:02:31.674Z,99.40
2023-03-02T22:04:58.648Z,99.40
2023-03-02T22:07:25.641Z,99.30
2023-03-02T22:09:53.892Z,99.30
2023-03-02T22:12:22.935Z,99.30
2023-03-02T22:14:50.595Z,99.30
2023-03-02T22:17:20.327Z,99.30
2023-03-02T22:19:49.032Z,99.20
2023-03-02T22:22:18.521Z,99.20
2023-03-02T22:24:48.869Z,99.20
2023-03-02T22:27:23.494Z,99.20
2023-03-02T22:29:52.203Z,99.10
2023-03-02T22:32:21.317Z,99.10
2023-03-02T22:34:50.443Z,99.10
2023-03-02T22:37:19.542Z,99.00
2023-03-02T22:39:47.648Z,99.10
2023-03-02T22:42:16.626Z,99.10
2023-03-02T22:44:47.824Z,99.20
2023-03-02T22:47:16.133Z,99.20
2023-03-02T22:49:43.177Z,99.20
2023-03-02T22:52:15.413Z,99.20
2023-03-02T22:54:42.357Z,99.20
2023-03-02T22:57:28.693Z,99.20
2023-03-02T23:00:29.495Z,99.20
2023-03-02T23:02:57.422Z,99.20
2023-03-02T23:05:27.622Z,99.10
2023-03-02T23:08:00.554Z,99.10
2023-03-02T23:10:27.649Z,99.10
2023-03-02T23:12:54.520Z,99.00
2023-03-02T23:15:23.019Z,99.00
2023-03-02T23:17:50.026Z,99.00
2023-03-02T23:20:17.217Z,99.00
2023-03-02T23:22:44.454Z,99.00
2023-03-02T23:25:11.313Z,99.00
2023-03-02T23:27:38.238Z,99.00
2023-03-02T23:30:06.138Z,99.00
2023-03-02T23:32:35.025Z,99.00
2023-03-02T23:35:02.008Z,99.10
2023-03-02T23:37:28.962Z,99.10
2023-03-02T23:39:55.888Z,99.10
2023-03-02T23:42:22.761Z,99.10
2023-03-02T23:44:49.642Z,99.10
2023-03-02T23:47:16.515Z,99.10
2023-03-02T23:49:44.748Z,99.40
2023-03-02T23:52:11.624Z,99.20
2023-03-02T23:54:38.620Z,99.20
2023-03-02T23:57:05.591Z,99.20
2023-03-02T23:59:32.467Z,99.20
